sensor_id;sensor_type;location;lat;lon;timestamp;pressure;altitude;pressure_sealevel;temperature;humidity
19884;BME280;10104;50.732;10.174;2023-03-23T00:01:48;97024.38;;;14.73;51.24
19884;BME280;10104;50.732;10.174;2023-03-23T00:04:12;97020.00;;;14.55;51.40
19884;BME280;10104;50.732;10.174;2023-03-23T00:06:33;97018.63;;;14.41;51.68
19884;BME280;10104;50.732;10.174;2023-03-23T00:08:55;97021.88;;;14.43;51.53
19884;BME280;10104;50.732;10.174;2023-03-23T00:11:21;97016.28;;;14.33;51.79
19884;BME280;10104;50.732;10.174;2023-03-23T00:13:42;97024.53;;;14.54;51.71
19884;BME280;10104;50.732;10.174;2023-03-23T00:16:04;97020.00;;;14.67;51.13
19884;BME280;10104;50.732;10.174;2023-03-23T00:18:24;97036.19;;;14.65;50.88
19884;BME280;10104;50.732;10.174;2023-03-23T00:20:45;97027.53;;;14.35;51.10
19884;BME280;10104;50.732;10.174;2023-03-23T00:23:09;97016.06;;;14.34;50.76
19884;BME280;10104;50.732;10.174;2023-03-23T00:25:29;97024.06;;;14.46;51.41
19884;BME280;10104;50.732;10.174;2023-03-23T00:27:49;97023.03;;;14.47;51.03
19884;BME280;10104;50.732;10.174;2023-03-23T00:30:10;97013.31;;;14.41;51.44
19884;BME280;10104;50.732;10.174;2023-03-23T00:32:30;97012.94;;;14.61;51.01
19884;BME280;10104;50.732;10.174;2023-03-23T00:34:51;97019.22;;;14.43;51.59
19884;BME280;10104;50.732;10.174;2023-03-23T00:37:11;97011.66;;;14.51;51.92
19884;BME280;10104;50.732;10.174;2023-03-23T00:39:33;96995.34;;;14.36;52.20
19884;BME280;10104;50.732;10.174;2023-03-23T00:41:55;96995.81;;;14.45;51.86
19884;BME280;10104;50.732;10.174;2023-03-23T00:44:20;96998.44;;;14.68;51.54
19884;BME280;10104;50.732;10.174;2023-03-23T00:46:44;96996.38;;;14.58;51.39
19884;BME280;10104;50.732;10.174;2023-03-23T00:49:08;97001.38;;;14.55;51.14
19884;BME280;10104;50.732;10.174;2023-03-23T00:51:29;97005.66;;;14.56;51.65
19884;BME280;10104;50.732;10.174;2023-03-23T00:53:50;97010.41;;;14.54;51.64
19884;BME280;10104;50.732;10.174;2023-03-23T00:56:11;97000.28;;;14.68;51.24
19884;BME280;10104;50.732;10.174;2023-03-23T00:58:31;96994.63;;;14.64;51.08
19884;BME280;10104;50.732;10.174;2023-03-23T01:00:52;96986.28;;;14.61;51.70
19884;BME280;10104;50.732;10.174;2023-03-23T01:03:12;96994.66;;;14.41;51.61
19884;BME280;10104;50.732;10.174;2023-03-23T01:05:39;96974.25;;;14.58;51.62
19884;BME280;10104;50.732;10.174;2023-03-23T01:07:59;96972.97;;;14.61;51.72
19884;BME280;10104;50.732;10.174;2023-03-23T01:10:20;96986.13;;;14.79;51.24
19884;BME280;10104;50.732;10.174;2023-03-23T01:12:40;96984.41;;;14.73;51.21
19884;BME280;10104;50.732;10.174;2023-03-23T01:15:00;96977.31;;;14.78;51.27
19884;BME280;10104;50.732;10.174;2023-03-23T01:17:21;96978.72;;;14.69;51.48
19884;BME280;10104;50.732;10.174;2023-03-23T01:19:41;96975.59;;;14.72;51.52
19884;BME280;10104;50.732;10.174;2023-03-23T01:22:02;96979.16;;;14.49;51.54
19884;BME280;10104;50.732;10.174;2023-03-23T01:24:22;96969.97;;;14.45;51.69
19884;BME280;10104;50.732;10.174;2023-03-23T01:26:43;96967.31;;;14.45;51.96
19884;BME280;10104;50.732;10.174;2023-03-23T01:29:04;96958.19;;;14.41;52.15
19884;BME280;10104;50.732;10.174;2023-03-23T01:31:25;96950.53;;;14.33;51.84
19884;BME280;10104;50.732;10.174;2023-03-23T01:33:47;96952.06;;;14.17;52.50
19884;BME280;10104;50.732;10.174;2023-03-23T01:36:12;96940.47;;;14.35;52.34
19884;BME280;10104;50.732;10.174;2023-03-23T01:38:34;96949.03;;;14.14;52.93
19884;BME280;10104;50.732;10.174;2023-03-23T01:40:54;96939.34;;;14.08;53.65
19884;BME280;10104;50.732;10.174;2023-03-23T01:43:15;96944.56;;;14.03;54.10
19884;BME280;10104;50.732;10.174;2023-03-23T01:45:36;96931.94;;;13.98;54.17
19884;BME280;10104;50.732;10.174;2023-03-23T01:48:13;96937.50;;;13.97;54.05
19884;BME280;10104;50.732;10.174;2023-03-23T01:50:40;96940.38;;;13.95;54.53
19884;BME280;10104;50.732;10.174;2023-03-23T01:53:04;96927.78;;;14.02;54.52
19884;BME280;10104;50.732;10.174;2023-03-23T01:55:29;96926.38;;;14.11;54.58
19884;BME280;10104;50.732;10.174;2023-03-23T01:57:50;96931.22;;;14.14;54.19
19884;BME280;10104;50.732;10.174;2023-03-23T02:00:12;96929.28;;;14.10;54.65
19884;BME280;10104;50.732;10.174;2023-03-23T02:02:35;96930.09;;;13.99;54.91
19884;BME280;10104;50.732;10.174;2023-03-23T02:04:59;96924.66;;;14.05;55.51
19884;BME280;10104;50.732;10.174;2023-03-23T02:07:22;96922.34;;;13.86;55.83
19884;BME280;10104;50.732;10.174;2023-03-23T02:09:43;96913.56;;;13.85;56.04
19884;BME280;10104;50.732;10.174;2023-03-23T02:12:04;96903.25;;;13.89;55.79
19884;BME280;10104;50.732;10.174;2023-03-23T02:14:26;96920.84;;;13.78;56.02
19884;BME280;10104;50.732;10.174;2023-03-23T02:16:55;96917.16;;;13.79;56.08
19884;BME280;10104;50.732;10.174;2023-03-23T02:30:30;96935.88;;;13.96;56.17
19884;BME280;10104;50.732;10.174;2023-03-23T02:33:16;96927.91;;;13.84;55.89
19884;BME280;10104;50.732;10.174;2023-03-23T02:39:03;96913.44;;;13.80;57.00
19884;BME280;10104;50.732;10.174;2023-03-23T02:41:24;96915.06;;;13.81;56.39
19884;BME280;10104;50.732;10.174;2023-03-23T02:43:48;96913.44;;;13.92;56.30
19884;BME280;10104;50.732;10.174;2023-03-23T02:46:09;96907.31;;;13.80;55.96
19884;BME280;10104;50.732;10.174;2023-03-23T02:48:31;96906.50;;;13.91;56.40
19884;BME280;10104;50.732;10.174;2023-03-23T02:50:52;96911.72;;;13.86;56.29
19884;BME280;10104;50.732;10.174;2023-03-23T02:53:16;96921.09;;;13.88;56.04
19884;BME280;10104;50.732;10.174;2023-03-23T02:55:41;96919.47;;;13.87;55.85
19884;BME280;10104;50.732;10.174;2023-03-23T02:58:02;96915.41;;;13.96;55.79
19884;BME280;10104;50.732;10.174;2023-03-23T03:00:23;96918.66;;;13.87;56.01
19884;BME280;10104;50.732;10.174;2023-03-23T03:02:54;96911.38;;;13.82;56.66
19884;BME280;10104;50.732;10.174;2023-03-23T03:10:53;96918.88;;;13.73;56.40
19884;BME280;10104;50.732;10.174;2023-03-23T03:18:44;96895.06;;;13.78;56.85
19884;BME280;10104;50.732;10.174;2023-03-23T03:21:08;96902.81;;;13.80;57.74
19884;BME280;10104;50.732;10.174;2023-03-23T03:23:34;96914.84;;;13.71;58.28
19884;BME280;10104;50.732;10.174;2023-03-23T03:25:57;96915.09;;;13.69;57.66
19884;BME280;10104;50.732;10.174;2023-03-23T03:28:19;96913.78;;;13.72;58.44
19884;BME280;10104;50.732;10.174;2023-03-23T03:30:42;96908.59;;;13.54;57.98
19884;BME280;10104;50.732;10.174;2023-03-23T03:33:04;96913.22;;;13.47;58.16
19884;BME280;10104;50.732;10.174;2023-03-23T03:35:25;96907.22;;;13.51;58.86
19884;BME280;10104;50.732;10.174;2023-03-23T03:37:46;96914.50;;;13.44;59.53
19884;BME280;10104;50.732;10.174;2023-03-23T03:40:13;96918.31;;;13.48;59.71
19884;BME280;10104;50.732;10.174;2023-03-23T03:42:34;96906.53;;;13.56;59.06
19884;BME280;10104;50.732;10.174;2023-03-23T03:44:55;96914.84;;;13.48;58.68
19884;BME280;10104;50.732;10.174;2023-03-23T03:47:15;96917.03;;;13.51;58.56
19884;BME280;10104;50.732;10.174;2023-03-23T03:49:35;96925.03;;;13.51;60.02
19884;BME280;10104;50.732;10.174;2023-03-23T03:51:56;96923.84;;;13.35;61.82
19884;BME280;10104;50.732;10.174;2023-03-23T03:54:16;96925.13;;;13.32;65.07
19884;BME280;10104;50.732;10.174;2023-03-23T03:56:37;96922.56;;;13.26;63.59
19884;BME280;10104;50.732;10.174;2023-03-23T03:59:00;96917.63;;;13.11;63.20
19884;BME280;10104;50.732;10.174;2023-03-23T04:01:22;96925.41;;;13.13;66.15
19884;BME280;10104;50.732;10.174;2023-03-23T04:03:43;96921.72;;;13.14;67.71
19884;BME280;10104;50.732;10.174;2023-03-23T04:06:05;96937.84;;;13.01;66.31
19884;BME280;10104;50.732;10.174;2023-03-23T04:08:25;96937.66;;;12.84;68.91
19884;BME280;10104;50.732;10.174;2023-03-23T04:10:47;96931.78;;;12.82;71.86
19884;BME280;10104;50.732;10.174;2023-03-23T04:13:08;96931.59;;;12.65;69.64
19884;BME280;10104;50.732;10.174;2023-03-23T04:15:28;96923.63;;;12.47;70.84
19884;BME280;10104;50.732;10.174;2023-03-23T04:17:49;96936.56;;;12.43;70.96
19884;BME280;10104;50.732;10.174;2023-03-23T04:20:10;96932.50;;;12.41;70.80
19884;BME280;10104;50.732;10.174;2023-03-23T04:22:38;96947.91;;;12.50;72.12
19884;BME280;10104;50.732;10.174;2023-03-23T04:25:00;96943.22;;;12.34;74.68
19884;BME280;10104;50.732;10.174;2023-03-23T04:27:22;96937.75;;;12.29;76.04
19884;BME280;10104;50.732;10.174;2023-03-23T04:29:43;96943.22;;;12.34;78.78
19884;BME280;10104;50.732;10.174;2023-03-23T04:32:09;96940.31;;;12.36;78.99
19884;BME280;10104;50.732;10.174;2023-03-23T04:34:29;96945.06;;;12.34;80.41
19884;BME280;10104;50.732;10.174;2023-03-23T04:36:52;96967.00;;;12.23;83.32
19884;BME280;10104;50.732;10.174;2023-03-23T04:39:13;96957.22;;;12.05;84.08
19884;BME280;10104;50.732;10.174;2023-03-23T04:41:33;96962.75;;;12.03;85.02
19884;BME280;10104;50.732;10.174;2023-03-23T04:43:55;96964.81;;;12.01;85.03
19884;BME280;10104;50.732;10.174;2023-03-23T04:46:16;96958.22;;;11.86;86.53
19884;BME280;10104;50.732;10.174;2023-03-23T04:48:38;96960.25;;;12.08;85.80
19884;BME280;10104;50.732;10.174;2023-03-23T04:51:01;96952.63;;;11.94;86.63
19884;BME280;10104;50.732;10.174;2023-03-23T04:53:23;96952.75;;;11.81;86.08
19884;BME280;10104;50.732;10.174;2023-03-23T04:55:43;96956.06;;;11.76;86.25
19884;BME280;10104;50.732;10.174;2023-03-23T04:58:05;96957.31;;;11.73;87.67
19884;BME280;10104;50.732;10.174;2023-03-23T05:00:26;96953.91;;;11.66;87.51
19884;BME280;10104;50.732;10.174;2023-03-23T05:02:47;96955.56;;;11.61;87.95
19884;BME280;10104;50.732;10.174;2023-03-23T05:05:12;96953.56;;;11.56;87.41
19884;BME280;10104;50.732;10.174;2023-03-23T05:07:33;96965.34;;;11.60;89.28
19884;BME280;10104;50.732;10.174;2023-03-23T05:09:53;96971.19;;;11.69;88.61
19884;BME280;10104;50.732;10.174;2023-03-23T05:12:14;96961.59;;;11.74;88.65
19884;BME280;10104;50.732;10.174;2023-03-23T05:14:35;96968.56;;;11.94;88.37
19884;BME280;10104;50.732;10.174;2023-03-23T05:16:56;96966.59;;;12.07;88.38
19884;BME280;10104;50.732;10.174;2023-03-23T05:19:16;96962.44;;;11.93;90.24
19884;BME280;10104;50.732;10.174;2023-03-23T05:21:37;96969.22;;;11.89;89.87
19884;BME280;10104;50.732;10.174;2023-03-23T05:23:57;96966.16;;;11.86;91.58
19884;BME280;10104;50.732;10.174;2023-03-23T05:26:21;96972.69;;;11.90;91.06
19884;BME280;10104;50.732;10.174;2023-03-23T05:28:42;96976.63;;;11.81;90.62
19884;BME280;10104;50.732;10.174;2023-03-23T05:31:02;96983.56;;;11.82;91.74
19884;BME280;10104;50.732;10.174;2023-03-23T05:33:23;96986.38;;;11.87;91.73
19884;BME280;10104;50.732;10.174;2023-03-23T05:35:45;96984.25;;;11.70;93.75
19884;BME280;10104;50.732;10.174;2023-03-23T05:38:07;96979.75;;;11.71;93.95
19884;BME280;10104;50.732;10.174;2023-03-23T05:40:27;96977.91;;;11.71;93.91
19884;BME280;10104;50.732;10.174;2023-03-23T05:42:48;96990.56;;;11.76;94.69
19884;BME280;10104;50.732;10.174;2023-03-23T05:45:10;96987.09;;;11.69;94.60
19884;BME280;10104;50.732;10.174;2023-03-23T05:47:31;96977.97;;;11.65;94.69
19884;BME280;10104;50.732;10.174;2023-03-23T05:49:52;96993.72;;;11.60;94.80
19884;BME280;10104;50.732;10.174;2023-03-23T05:52:12;96973.38;;;11.54;95.86
19884;BME280;10104;50.732;10.174;2023-03-23T05:54:33;96992.16;;;11.52;97.84
19884;BME280;10104;50.732;10.174;2023-03-23T05:56:54;96984.50;;;11.62;96.48
19884;BME280;10104;50.732;10.174;2023-03-23T05:59:15;96980.69;;;11.58;97.83
19884;BME280;10104;50.732;10.174;2023-03-23T06:01:35;96972.94;;;11.82;96.98
19884;BME280;10104;50.732;10.174;2023-03-23T06:03:56;96982.41;;;11.71;96.99
19884;BME280;10104;50.732;10.174;2023-03-23T06:06:18;96980.97;;;11.75;97.35
19884;BME280;10104;50.732;10.174;2023-03-23T06:08:39;96975.47;;;11.77;97.41
19884;BME280;10104;50.732;10.174;2023-03-23T06:11:00;96980.16;;;11.74;97.76
19884;BME280;10104;50.732;10.174;2023-03-23T06:13:21;96987.84;;;11.83;97.80
19884;BME280;10104;50.732;10.174;2023-03-23T06:15:41;96986.09;;;11.95;98.02
19884;BME280;10104;50.732;10.174;2023-03-23T06:18:03;96993.50;;;11.86;98.21
19884;BME280;10104;50.732;10.174;2023-03-23T06:20:24;96992.13;;;11.84;97.75
19884;BME280;10104;50.732;10.174;2023-03-23T06:22:44;96989.31;;;11.79;98.80
19884;BME280;10104;50.732;10.174;2023-03-23T06:25:06;96992.81;;;11.72;99.36
19884;BME280;10104;50.732;10.174;2023-03-23T06:27:27;96987.31;;;11.67;99.45
19884;BME280;10104;50.732;10.174;2023-03-23T06:29:48;96988.06;;;11.81;99.47
19884;BME280;10104;50.732;10.174;2023-03-23T06:32:10;96989.56;;;11.95;98.30
19884;BME280;10104;50.732;10.174;2023-03-23T06:34:32;96993.66;;;11.91;98.57
19884;BME280;10104;50.732;10.174;2023-03-23T06:36:56;96989.28;;;12.03;97.62
19884;BME280;10104;50.732;10.174;2023-03-23T06:39:16;96991.63;;;11.93;98.28
19884;BME280;10104;50.732;10.174;2023-03-23T06:41:36;96995.38;;;12.04;98.03
19884;BME280;10104;50.732;10.174;2023-03-23T06:43:57;96980.66;;;12.26;96.11
19884;BME280;10104;50.732;10.174;2023-03-23T06:46:18;96979.13;;;12.37;95.28
19884;BME280;10104;50.732;10.174;2023-03-23T06:48:38;96975.78;;;12.41;94.85
19884;BME280;10104;50.732;10.174;2023-03-23T06:50:58;96976.09;;;12.33;95.32
19884;BME280;10104;50.732;10.174;2023-03-23T06:53:19;96973.13;;;12.60;93.18
19884;BME280;10104;50.732;10.174;2023-03-23T06:55:42;96976.09;;;12.51;92.85
19884;BME280;10104;50.732;10.174;2023-03-23T06:58:05;96977.03;;;12.75;92.33
19884;BME280;10104;50.732;10.174;2023-03-23T07:00:26;96985.66;;;12.71;91.75
19884;BME280;10104;50.732;10.174;2023-03-23T07:02:46;96990.09;;;12.59;92.22
19884;BME280;10104;50.732;10.174;2023-03-23T07:05:08;97010.28;;;12.60;93.06
19884;BME280;10104;50.732;10.174;2023-03-23T07:07:31;96998.50;;;12.55;92.54
19884;BME280;10104;50.732;10.174;2023-03-23T07:09:52;96992.81;;;12.70;93.01
19884;BME280;10104;50.732;10.174;2023-03-23T07:12:13;97004.09;;;12.66;91.87
19884;BME280;10104;50.732;10.174;2023-03-23T07:14:34;97001.22;;;12.67;91.99
19884;BME280;10104;50.732;10.174;2023-03-23T07:16:54;97006.75;;;12.66;92.66
19884;BME280;10104;50.732;10.174;2023-03-23T07:19:16;97005.88;;;12.53;92.46
19884;BME280;10104;50.732;10.174;2023-03-23T07:21:36;96990.91;;;12.77;92.48
19884;BME280;10104;50.732;10.174;2023-03-23T07:23:57;96983.03;;;13.01;91.16
19884;BME280;10104;50.732;10.174;2023-03-23T07:26:17;96990.19;;;13.00;89.66
19884;BME280;10104;50.732;10.174;2023-03-23T07:28:37;96986.28;;;13.32;89.03
19884;BME280;10104;50.732;10.174;2023-03-23T07:31:00;96995.00;;;13.21;86.68
19884;BME280;10104;50.732;10.174;2023-03-23T07:33:21;97002.13;;;13.39;86.16
19884;BME280;10104;50.732;10.174;2023-03-23T07:35:41;97003.50;;;13.42;86.25
19884;BME280;10104;50.732;10.174;2023-03-23T07:38:03;97001.47;;;13.55;86.38
19884;BME280;10104;50.732;10.174;2023-03-23T07:40:24;97007.69;;;13.49;87.32
19884;BME280;10104;50.732;10.174;2023-03-23T07:42:46;97006.41;;;13.52;87.38
19884;BME280;10104;50.732;10.174;2023-03-23T07:45:12;96994.19;;;13.74;86.46
19884;BME280;10104;50.732;10.174;2023-03-23T07:47:33;97004.16;;;14.13;85.27
19884;BME280;10104;50.732;10.174;2023-03-23T07:49:53;96989.25;;;14.12;83.91
19884;BME280;10104;50.732;10.174;2023-03-23T07:52:14;96993.38;;;14.32;82.34
19884;BME280;10104;50.732;10.174;2023-03-23T07:54:34;96995.13;;;14.49;81.50
19884;BME280;10104;50.732;10.174;2023-03-23T07:56:54;96991.63;;;14.61;81.29
19884;BME280;10104;50.732;10.174;2023-03-23T07:59:15;97014.31;;;14.51;81.62
19884;BME280;10104;50.732;10.174;2023-03-23T08:01:35;97017.47;;;14.48;79.30
19884;BME280;10104;50.732;10.174;2023-03-23T08:03:56;96999.31;;;14.85;80.86
19884;BME280;10104;50.732;10.174;2023-03-23T08:06:17;97015.72;;;14.94;79.76
19884;BME280;10104;50.732;10.174;2023-03-23T08:08:38;97008.16;;;14.74;78.91
19884;BME280;10104;50.732;10.174;2023-03-23T08:11:00;97013.25;;;14.64;79.95
19884;BME280;10104;50.732;10.174;2023-03-23T08:13:21;97030.19;;;14.35;81.97
19884;BME280;10104;50.732;10.174;2023-03-23T08:15:42;97035.09;;;14.38;78.72
19884;BME280;10104;50.732;10.174;2023-03-23T08:18:04;97039.00;;;14.24;76.18
19884;BME280;10104;50.732;10.174;2023-03-23T08:20:25;97034.94;;;14.21;79.36
19884;BME280;10104;50.732;10.174;2023-03-23T08:22:50;97031.72;;;14.42;79.92
19884;BME280;10104;50.732;10.174;2023-03-23T08:25:13;97039.13;;;14.29;79.96
19884;BME280;10104;50.732;10.174;2023-03-23T08:27:34;97049.19;;;14.15;78.07
19884;BME280;10104;50.732;10.174;2023-03-23T08:29:55;97044.78;;;13.97;82.80
19884;BME280;10104;50.732;10.174;2023-03-23T08:32:15;97046.84;;;13.84;79.17
19884;BME280;10104;50.732;10.174;2023-03-23T08:34:36;97029.03;;;14.07;78.37
19884;BME280;10104;50.732;10.174;2023-03-23T08:36:56;97034.38;;;14.19;79.23
19884;BME280;10104;50.732;10.174;2023-03-23T08:39:17;97029.63;;;14.21;79.02
19884;BME280;10104;50.732;10.174;2023-03-23T08:41:38;97039.13;;;14.29;79.45
19884;BME280;10104;50.732;10.174;2023-03-23T08:43:58;97043.84;;;13.92;78.18
19884;BME280;10104;50.732;10.174;2023-03-23T08:46:19;97037.28;;;14.06;80.16
19884;BME280;10104;50.732;10.174;2023-03-23T08:48:39;97036.22;;;14.18;79.67
19884;BME280;10104;50.732;10.174;2023-03-23T08:51:00;97036.56;;;14.10;79.98
19884;BME280;10104;50.732;10.174;2023-03-23T08:53:21;97038.91;;;14.07;82.86
19884;BME280;10104;50.732;10.174;2023-03-23T08:55:41;97034.72;;;14.11;82.57
19884;BME280;10104;50.732;10.174;2023-03-23T08:58:02;97041.91;;;14.10;81.24
19884;BME280;10104;50.732;10.174;2023-03-23T09:00:23;97055.28;;;13.81;79.74
19884;BME280;10104;50.732;10.174;2023-03-23T09:02:51;97052.84;;;13.67;80.96
19884;BME280;10104;50.732;10.174;2023-03-23T09:05:17;97064.09;;;13.81;83.93
19884;BME280;10104;50.732;10.174;2023-03-23T09:07:40;97066.19;;;14.02;82.38
19884;BME280;10104;50.732;10.174;2023-03-23T09:10:01;97070.94;;;14.12;82.82
19884;BME280;10104;50.732;10.174;2023-03-23T09:12:22;97071.06;;;14.29;81.36
19884;BME280;10104;50.732;10.174;2023-03-23T09:14:43;97065.19;;;14.38;81.53
19884;BME280;10104;50.732;10.174;2023-03-23T09:17:05;97066.34;;;14.31;80.25
19884;BME280;10104;50.732;10.174;2023-03-23T09:19:26;97067.81;;;14.27;79.54
19884;BME280;10104;50.732;10.174;2023-03-23T09:21:46;97063.91;;;14.41;81.40
19884;BME280;10104;50.732;10.174;2023-03-23T09:24:06;97056.94;;;14.51;80.92
19884;BME280;10104;50.732;10.174;2023-03-23T09:26:27;97076.88;;;14.61;77.77
19884;BME280;10104;50.732;10.174;2023-03-23T09:28:48;97067.81;;;14.85;78.53
19884;BME280;10104;50.732;10.174;2023-03-23T09:31:08;97080.66;;;15.00;76.37
19884;BME280;10104;50.732;10.174;2023-03-23T09:33:29;97084.25;;;14.93;76.35
19884;BME280;10104;50.732;10.174;2023-03-23T09:35:58;97088.22;;;14.79;77.47
19884;BME280;10104;50.732;10.174;2023-03-23T09:38:18;97085.22;;;14.52;76.82
19884;BME280;10104;50.732;10.174;2023-03-23T09:40:48;97096.44;;;14.78;80.29
19884;BME280;10104;50.732;10.174;2023-03-23T09:48:40;97087.44;;;15.07;75.73
19884;BME280;10104;50.732;10.174;2023-03-23T09:53:34;97087.97;;;15.61;73.50
19884;BME280;10104;50.732;10.174;2023-03-23T09:55:56;97085.38;;;15.37;75.28
19884;BME280;10104;50.732;10.174;2023-03-23T09:58:30;97070.59;;;15.47;75.50
19884;BME280;10104;50.732;10.174;2023-03-23T10:00:59;97075.03;;;15.53;76.54
19884;BME280;10104;50.732;10.174;2023-03-23T10:03:32;97086.84;;;15.45;76.37
19884;BME280;10104;50.732;10.174;2023-03-23T10:05:55;97076.22;;;15.33;76.34
19884;BME280;10104;50.732;10.174;2023-03-23T10:08:16;97069.88;;;15.51;75.11
19884;BME280;10104;50.732;10.174;2023-03-23T10:11:02;97081.94;;;15.99;71.85
19884;BME280;10104;50.732;10.174;2023-03-23T10:15:54;97059.09;;;15.74;72.49
19884;BME280;10104;50.732;10.174;2023-03-23T10:18:22;97057.25;;;15.75;70.47
19884;BME280;10104;50.732;10.174;2023-03-23T10:20:56;97063.34;;;16.21;72.37
19884;BME280;10104;50.732;10.174;2023-03-23T10:25:43;97070.84;;;16.40;69.53
19884;BME280;10104;50.732;10.174;2023-03-23T10:28:22;97071.38;;;16.59;71.20
19884;BME280;10104;50.732;10.174;2023-03-23T10:30:57;97076.50;;;16.44;69.98
19884;BME280;10104;50.732;10.174;2023-03-23T10:33:40;97074.91;;;16.26;71.28
19884;BME280;10104;50.732;10.174;2023-03-23T10:41:23;97070.28;;;16.38;70.06
19884;BME280;10104;50.732;10.174;2023-03-23T10:43:45;97078.28;;;16.72;70.00
19884;BME280;10104;50.732;10.174;2023-03-23T10:48:45;97078.22;;;16.88;66.66
19884;BME280;10104;50.732;10.174;2023-03-23T10:51:12;97084.03;;;17.02;69.40
19884;BME280;10104;50.732;10.174;2023-03-23T10:53:42;97087.63;;;17.13;68.25
19884;BME280;10104;50.732;10.174;2023-03-23T10:56:04;97103.47;;;16.42;67.01
19884;BME280;10104;50.732;10.174;2023-03-23T10:58:30;97092.63;;;16.32;70.62
19884;BME280;10104;50.732;10.174;2023-03-23T11:00:51;97083.47;;;15.78;72.79
19884;BME280;10104;50.732;10.174;2023-03-23T11:05:56;97100.31;;;15.10;77.86
19884;BME280;10104;50.732;10.174;2023-03-23T11:08:23;97095.88;;;15.16;79.54
19884;BME280;10104;50.732;10.174;2023-03-23T11:10:50;97093.75;;;15.29;80.73
19884;BME280;10104;50.732;10.174;2023-03-23T11:13:14;97090.88;;;15.19;74.57
19884;BME280;10104;50.732;10.174;2023-03-23T11:15:40;97089.03;;;15.20;75.42
19884;BME280;10104;50.732;10.174;2023-03-23T11:18:05;97105.28;;;15.47;76.23
19884;BME280;10104;50.732;10.174;2023-03-23T11:20:29;97093.00;;;15.46;75.15
19884;BME280;10104;50.732;10.174;2023-03-23T11:22:51;97102.06;;;15.73;75.93
19884;BME280;10104;50.732;10.174;2023-03-23T11:25:13;97101.44;;;15.83;74.01
19884;BME280;10104;50.732;10.174;2023-03-23T11:27:34;97114.19;;;15.64;72.70
19884;BME280;10104;50.732;10.174;2023-03-23T11:30:08;97114.72;;;15.94;72.28
19884;BME280;10104;50.732;10.174;2023-03-23T11:32:29;97100.16;;;16.02;68.13
19884;BME280;10104;50.732;10.174;2023-03-23T11:34:56;97100.66;;;16.32;70.66
19884;BME280;10104;50.732;10.174;2023-03-23T11:40:00;97097.25;;;16.20;68.03
19884;BME280;10104;50.732;10.174;2023-03-23T11:42:25;97091.44;;;16.23;66.66
19884;BME280;10104;50.732;10.174;2023-03-23T11:44:49;97091.63;;;16.55;69.33
19884;BME280;10104;50.732;10.174;2023-03-23T11:52:19;97091.09;;;16.03;69.67
19884;BME280;10104;50.732;10.174;2023-03-23T11:54:48;97100.81;;;16.26;70.61
19884;BME280;10104;50.732;10.174;2023-03-23T11:57:12;97096.38;;;16.14;69.98
19884;BME280;10104;50.732;10.174;2023-03-23T11:59:35;97096.94;;;16.16;71.13
19884;BME280;10104;50.732;10.174;2023-03-23T12:02:12;97089.88;;;16.44;71.38
19884;BME280;10104;50.732;10.174;2023-03-23T12:05:25;97104.69;;;16.18;71.58
19884;BME280;10104;50.732;10.174;2023-03-23T12:10:30;97104.38;;;16.31;68.81
19884;BME280;10104;50.732;10.174;2023-03-23T12:13:06;97095.91;;;16.73;67.92
19884;BME280;10104;50.732;10.174;2023-03-23T12:18:27;97099.75;;;16.43;67.36
19884;BME280;10104;50.732;10.174;2023-03-23T12:21:13;97097.00;;;16.22;68.22
19884;BME280;10104;50.732;10.174;2023-03-23T12:28:36;97094.75;;;15.97;70.40
19884;BME280;10104;50.732;10.174;2023-03-23T12:31:15;97094.88;;;16.24;69.27
19884;BME280;10104;50.732;10.174;2023-03-23T12:33:50;97100.31;;;16.45;66.04
19884;BME280;10104;50.732;10.174;2023-03-23T12:36:34;97091.72;;;16.98;66.76
19884;BME280;10104;50.732;10.174;2023-03-23T12:39:10;97081.84;;;16.61;67.68
19884;BME280;10104;50.732;10.174;2023-03-23T12:41:45;97084.59;;;16.49;68.46
19884;BME280;10104;50.732;10.174;2023-03-23T12:44:10;97085.19;;;16.17;68.04
19884;BME280;10104;50.732;10.174;2023-03-23T12:49:21;97095.75;;;15.51;70.00
19884;BME280;10104;50.732;10.174;2023-03-23T12:51:51;97083.72;;;15.48;70.48
19884;BME280;10104;50.732;10.174;2023-03-23T12:57:11;97085.66;;;15.24;69.48
19884;BME280;10104;50.732;10.174;2023-03-23T12:59:53;97072.03;;;15.09;71.64
19884;BME280;10104;50.732;10.174;2023-03-23T13:02:26;97096.56;;;14.60;70.81
19884;BME280;10104;50.732;10.174;2023-03-23T13:05:06;97077.47;;;14.63;73.19
19884;BME280;10104;50.732;10.174;2023-03-23T13:07:34;97071.19;;;14.34;73.92
19884;BME280;10104;50.732;10.174;2023-03-23T13:10:07;97084.97;;;14.19;74.88
19884;BME280;10104;50.732;10.174;2023-03-23T13:12:33;97078.81;;;14.07;76.40
19884;BME280;10104;50.732;10.174;2023-03-23T13:23:05;97066.66;;;13.99;78.77
19884;BME280;10104;50.732;10.174;2023-03-23T13:27:59;97081.59;;;14.12;78.57
19884;BME280;10104;50.732;10.174;2023-03-23T13:30:21;97079.28;;;14.04;76.44
19884;BME280;10104;50.732;10.174;2023-03-23T13:32:45;97086.22;;;14.05;78.17
19884;BME280;10104;50.732;10.174;2023-03-23T13:35:12;97079.66;;;14.19;78.33
19884;BME280;10104;50.732;10.174;2023-03-23T13:37:33;97077.66;;;14.26;77.07
19884;BME280;10104;50.732;10.174;2023-03-23T13:39:56;97067.84;;;14.62;75.39
19884;BME280;10104;50.732;10.174;2023-03-23T13:42:27;97067.16;;;14.54;72.97
19884;BME280;10104;50.732;10.174;2023-03-23T13:55:19;97056.84;;;15.10;70.40
19884;BME280;10104;50.732;10.174;2023-03-23T14:02:50;97055.41;;;15.47;70.76
19884;BME280;10104;50.732;10.174;2023-03-23T14:05:35;97055.59;;;15.57;67.96
19884;BME280;10104;50.732;10.174;2023-03-23T14:10:38;97046.09;;;15.61;68.43
19884;BME280;10104;50.732;10.174;2023-03-23T14:13:00;97039.72;;;15.96;68.83